Time;durP1;ratioP1;P1;durP2;ratioP2;P2;SDS_P1;SDS_P2;PMS_P1;PMS_P2;Temp;Humidity;BMP_temperature;BMP_pressure;BME280_temperature;BME280_humidity;BME280_pressure;Samples;Min_cycle;Max_cycle;Signal;HPM_P1;HPM_P2
2022/02/15 00:02:08;;;;;;;5.60;2.80;;;6.00;99.90;;;;;;4978466;28;20287;-86
2022/02/15 00:04:34;;;;;;;5.72;2.72;;;6.00;99.90;;;;;;4955015;28;20261;-87
2022/02/15 00:07:00;;;;;;;12.30;3.70;;;6.00;99.90;;;;;;4951266;28;20048;-86
2022/02/15 00:09:25;;;;;;;9.60;2.42;;;6.10;99.90;;;;;;4956425;28;20057;-89
2022/02/15 00:11:51;;;;;;;8.35;2.22;;;6.00;99.90;;;;;;4971052;28;20049;-89
2022/02/15 00:14:17;;;;;;;8.18;3.13;;;6.10;99.90;;;;;;4979496;28;20046;-87
2022/02/15 00:16:44;;;;;;;9.25;2.67;;;6.00;99.90;;;;;;4984429;28;20038;-88
2022/02/15 00:19:10;;;;;;;7.50;2.53;;;6.10;99.90;;;;;;4969161;28;20092;-90
2022/02/15 00:21:36;;;;;;;8.95;2.88;;;6.10;99.90;;;;;;4977456;28;20085;-85
2022/02/15 00:24:02;;;;;;;9.68;2.65;;;6.00;99.90;;;;;;4956041;28;20040;-88
2022/02/15 00:26:28;;;;;;;11.30;2.53;;;6.10;99.90;;;;;;4986276;28;20477;-87
2022/02/15 00:28:53;;;;;;;6.35;2.20;;;6.10;99.90;;;;;;4984726;28;20548;-85
2022/02/15 00:31:19;;;;;;;11.98;2.67;;;6.10;99.90;;;;;;4972356;28;20049;-86
2022/02/15 00:33:45;;;;;;;11.32;3.17;;;6.10;99.90;;;;;;4973533;28;20400;-88
2022/02/15 00:36:11;;;;;;;6.57;2.50;;;6.10;99.90;;;;;;4968469;28;20052;-87
2022/02/15 00:38:37;;;;;;;11.98;2.60;;;6.10;99.90;;;;;;4973882;28;20037;-85
2022/02/15 00:41:03;;;;;;;8.30;2.83;;;6.10;99.90;;;;;;4986571;28;20037;-88
2022/02/15 00:43:29;;;;;;;11.15;2.53;;;6.10;99.90;;;;;;4975817;28;20037;-90
2022/02/15 00:45:55;;;;;;;10.65;3.05;;;6.10;99.90;;;;;;4988932;28;20091;-87
2022/02/15 00:48:20;;;;;;;11.50;2.97;;;6.20;99.90;;;;;;4979473;28;20505;-88
2022/02/15 00:50:47;;;;;;;11.95;2.70;;;6.20;99.90;;;;;;4972699;28;20157;-87
2022/02/15 00:53:13;;;;;;;11.02;3.05;;;6.20;99.90;;;;;;4957320;28;20037;-87
2022/02/15 00:55:39;;;;;;;15.13;3.15;;;6.20;99.90;;;;;;4989535;28;20450;-87
2022/02/15 00:58:05;;;;;;;14.27;3.00;;;6.20;99.90;;;;;;4991302;28;20037;-86
2022/02/15 01:00:30;;;;;;;5.55;2.30;;;6.20;99.90;;;;;;4971436;28;20692;-87
2022/02/15 01:02:56;;;;;;;16.02;3.20;;;6.20;99.90;;;;;;4951071;28;20041;-88
2022/02/15 01:05:22;;;;;;;15.32;2.80;;;6.20;99.90;;;;;;4962398;28;20403;-86
2022/02/15 01:07:48;;;;;;;13.48;3.28;;;6.20;99.90;;;;;;4971433;28;20033;-88
2022/02/15 01:10:14;;;;;;;14.55;3.33;;;6.20;99.90;;;;;;4974766;28;20048;-87
2022/02/15 01:12:40;;;;;;;12.65;3.13;;;6.20;99.90;;;;;;4990619;28;20071;-87
2022/02/15 01:15:06;;;;;;;15.18;3.30;;;6.20;99.90;;;;;;4966667;28;20059;-86
2022/02/15 01:17:32;;;;;;;21.42;3.40;;;6.20;99.90;;;;;;4979951;28;20041;-87
2022/02/15 01:19:58;;;;;;;9.05;2.92;;;6.20;99.90;;;;;;4970474;28;20547;-86
2022/02/15 01:22:24;;;;;;;13.30;2.92;;;6.20;99.90;;;;;;4986313;28;20037;-88
2022/02/15 01:24:49;;;;;;;12.25;2.95;;;6.20;99.90;;;;;;4973037;28;20041;-86
2022/02/15 01:27:15;;;;;;;9.57;2.78;;;6.20;99.90;;;;;;5000485;28;20037;-86
2022/02/15 01:29:41;;;;;;;16.40;4.45;;;6.20;99.90;;;;;;4969328;28;20042;-86
2022/02/15 01:32:07;;;;;;;15.48;2.95;;;6.30;99.90;;;;;;4970774;28;20128;-88
2022/02/15 01:34:33;;;;;;;16.80;3.78;;;6.30;99.90;;;;;;5003338;28;20060;-89
2022/02/15 01:36:59;;;;;;;12.63;3.65;;;6.30;99.90;;;;;;4962772;28;20520;-87
2022/02/15 01:39:25;;;;;;;12.10;3.50;;;6.30;99.90;;;;;;4986972;28;20034;-87
2022/02/15 01:41:51;;;;;;;10.80;3.25;;;6.30;99.90;;;;;;4977081;28;20072;-88
2022/02/15 01:44:18;;;;;;;15.15;3.58;;;6.30;99.90;;;;;;4969404;28;20041;-88
2022/02/15 01:46:44;;;;;;;17.67;4.10;;;6.30;99.90;;;;;;4986894;28;20485;-87
2022/02/15 01:49:10;;;;;;;10.60;3.33;;;6.30;99.90;;;;;;5007940;28;20029;-87
2022/02/15 01:51:35;;;;;;;14.63;3.58;;;6.40;99.90;;;;;;4974506;28;20033;-88
2022/02/15 01:54:07;;;;;;;12.25;3.42;;;6.30;99.90;;;;;;4966670;28;20034;-87
2022/02/15 01:56:33;;;;;;;13.43;3.97;;;6.30;99.90;;;;;;4970105;28;20049;-86
2022/02/15 01:58:59;;;;;;;15.63;4.28;;;6.30;99.90;;;;;;5002022;28;20372;-86
2022/02/15 02:01:25;;;;;;;13.23;4.10;;;6.30;99.90;;;;;;4983945;28;20036;-87
2022/02/15 02:03:50;;;;;;;14.23;3.95;;;6.30;99.90;;;;;;4983701;28;20063;-88
2022/02/15 02:06:16;;;;;;;16.55;5.43;;;6.30;99.90;;;;;;4952066;28;20037;-90
2022/02/15 02:08:42;;;;;;;16.42;4.22;;;6.40;99.90;;;;;;4974299;28;20052;-87
2022/02/15 02:11:08;;;;;;;11.50;4.22;;;6.30;99.90;;;;;;4988984;28;20049;-89
2022/02/15 02:13:35;;;;;;;19.85;4.57;;;6.40;99.90;;;;;;4983002;28;20095;-87
2022/02/15 02:16:15;;;;;;;17.33;4.50;;;6.30;99.90;;;;;;4980187;28;20492;-87
2022/02/15 02:18:44;;;;;;;11.57;4.65;;;6.40;99.90;;;;;;4972441;28;20493;-87
2022/02/15 02:21:10;;;;;;;14.80;4.82;;;6.30;99.90;;;;;;4963755;28;20041;-87
2022/02/15 02:23:36;;;;;;;21.40;4.82;;;6.30;99.90;;;;;;4980706;28;20045;-87
2022/02/15 02:26:02;;;;;;;20.27;4.82;;;6.30;99.90;;;;;;4956000;28;20044;-86
2022/02/15 02:28:29;;;;;;;19.25;4.63;;;6.30;99.90;;;;;;4966315;28;20045;-88
2022/02/15 02:30:55;;;;;;;13.02;3.75;;;6.40;99.90;;;;;;4982573;28;20044;-87
2022/02/15 02:33:20;;;;;;;22.55;4.78;;;6.30;99.90;;;;;;4987662;28;20029;-86
2022/02/15 02:35:47;;;;;;;16.05;4.55;;;6.30;99.90;;;;;;4974879;28;20681;-87
2022/02/15 02:38:12;;;;;;;18.23;5.55;;;6.30;99.90;;;;;;4981336;28;20476;-87
2022/02/15 02:40:38;;;;;;;14.93;4.88;;;6.30;99.90;;;;;;4963978;28;20175;-85
2022/02/15 02:43:04;;;;;;;16.45;4.85;;;6.30;99.90;;;;;;4956908;28;20041;-86
2022/02/15 02:45:30;;;;;;;17.65;5.03;;;6.30;99.90;;;;;;4969246;28;20096;-89
2022/02/15 02:47:55;;;;;;;20.73;4.88;;;6.30;99.90;;;;;;4972469;28;20033;-86
2022/02/15 02:50:26;;;;;;;19.63;4.75;;;6.30;99.90;;;;;;4983692;28;20104;-86
2022/02/15 02:52:52;;;;;;;18.95;5.20;;;6.30;99.90;;;;;;4986982;28;20079;-86
2022/02/15 02:55:18;;;;;;;18.83;4.93;;;6.30;99.90;;;;;;4960812;28;21069;-88
2022/02/15 02:57:44;;;;;;;18.42;4.63;;;6.30;99.90;;;;;;4968126;28;20100;-87
2022/02/15 03:00:13;;;;;;;20.13;5.60;;;6.30;99.90;;;;;;4998733;28;20123;-86
2022/02/15 03:02:39;;;;;;;15.70;4.57;;;6.30;99.90;;;;;;5003610;28;20070;-86
2022/02/15 03:05:05;;;;;;;17.83;5.03;;;6.30;99.90;;;;;;4955901;28;20077;-86
2022/02/15 03:07:31;;;;;;;16.42;5.03;;;6.30;99.90;;;;;;4970511;28;20080;-87
2022/02/15 03:09:57;;;;;;;18.75;5.28;;;6.30;99.90;;;;;;4969922;28;20049;-87
2022/02/15 03:12:23;;;;;;;11.82;4.78;;;6.30;99.90;;;;;;4974199;28;20060;-86
2022/02/15 03:14:48;;;;;;;16.13;4.55;;;6.30;99.90;;;;;;4971259;28;20408;-88
2022/02/15 03:17:16;;;;;;;10.93;4.50;;;6.30;99.90;;;;;;4972897;28;20049;-87
2022/02/15 03:19:42;;;;;;;14.75;4.57;;;6.30;99.90;;;;;;4987297;28;20055;-86
2022/02/15 03:22:08;;;;;;;15.20;4.25;;;6.30;99.90;;;;;;4974550;28;20039;-87
2022/02/15 03:24:34;;;;;;;12.18;3.97;;;6.30;99.90;;;;;;4984475;28;20038;-85
2022/02/15 03:27:00;;;;;;;12.50;4.25;;;6.30;99.90;;;;;;4972302;28;20470;-86
2022/02/15 03:29:26;;;;;;;14.80;4.50;;;6.40;99.90;;;;;;4985302;28;20065;-88
2022/02/15 03:31:52;;;;;;;15.95;3.95;;;6.30;99.90;;;;;;4984040;28;20038;-87
2022/02/15 03:34:18;;;;;;;14.38;4.13;;;6.30;99.90;;;;;;4957376;28;20041;-84
2022/02/15 03:36:44;;;;;;;16.90;4.35;;;6.40;99.90;;;;;;4970548;28;20044;-85
2022/02/15 03:39:10;;;;;;;21.05;4.60;;;6.40;99.90;;;;;;4996827;28;20709;-87
2022/02/15 03:44:21;;;;;;;18.42;4.38;;;6.30;99.90;;;;;;4997495;28;20250;-85
2022/02/15 03:46:51;;;;;;;13.93;4.38;;;6.30;99.90;;;;;;4991599;28;20041;-86
2022/02/15 03:49:18;;;;;;;17.23;5.43;;;6.40;99.90;;;;;;4957782;28;20041;-87
2022/02/15 03:51:44;;;;;;;20.92;5.22;;;6.40;99.90;;;;;;4985610;28;20329;-85
2022/02/15 03:54:10;;;;;;;18.65;5.45;;;6.40;99.90;;;;;;4974653;28;20366;-87
2022/02/15 03:56:39;;;;;;;18.10;5.30;;;6.40;99.90;;;;;;4974689;28;20489;-87
2022/02/15 03:59:06;;;;;;;26.75;6.78;;;6.30;99.90;;;;;;4971001;28;20049;-86
2022/02/15 04:01:33;;;;;;;19.35;6.38;;;6.30;99.90;;;;;;5003961;28;20137;-86
2022/02/15 04:03:58;;;;;;;18.52;5.72;;;6.30;99.90;;;;;;4988648;28;20446;-87
2022/02/15 04:06:24;;;;;;;22.15;6.18;;;6.30;99.90;;;;;;4987768;28;20116;-85
2022/02/15 04:08:50;;;;;;;20.92;6.60;;;6.30;99.90;;;;;;4989646;28;20048;-87
2022/02/15 04:11:15;;;;;;;20.52;6.20;;;6.20;99.90;;;;;;4958926;28;20034;-86
2022/02/15 04:13:41;;;;;;;19.60;6.50;;;6.20;99.90;;;;;;4987380;28;20048;-86
2022/02/15 04:16:10;;;;;;;21.08;6.07;;;6.20;99.90;;;;;;4986659;28;20139;-86
2022/02/15 04:18:36;;;;;;;20.17;6.10;;;6.20;99.90;;;;;;4973252;28;20150;-86
2022/02/15 04:21:02;;;;;;;16.30;5.60;;;6.20;99.90;;;;;;4969488;28;20064;-85
2022/02/15 04:23:28;;;;;;;20.70;5.95;;;6.20;99.90;;;;;;4988861;28;20041;-87
2022/02/15 04:25:53;;;;;;;19.73;6.22;;;6.20;99.90;;;;;;4953580;28;20037;-86
2022/02/15 04:28:19;;;;;;;17.52;5.93;;;6.20;99.90;;;;;;4956268;28;20053;-84
2022/02/15 04:30:45;;;;;;;19.92;6.50;;;6.20;99.90;;;;;;4974574;28;20102;-86
2022/02/15 04:33:11;;;;;;;18.75;6.43;;;6.20;99.90;;;;;;4974077;28;20037;-86
2022/02/15 04:35:37;;;;;;;20.88;6.68;;;6.20;99.90;;;;;;4968710;28;20101;-86
2022/02/15 04:38:03;;;;;;;19.40;8.00;;;6.20;99.90;;;;;;4969419;28;20038;-86
2022/02/15 04:40:29;;;;;;;23.05;7.78;;;6.20;99.90;;;;;;4973450;28;20514;-87
2022/02/15 04:42:55;;;;;;;21.40;7.57;;;6.20;99.90;;;;;;4986992;28;20110;-85
2022/02/15 04:45:21;;;;;;;26.75;7.60;;;6.20;99.90;;;;;;4974075;28;20527;-86
2022/02/15 04:47:46;;;;;;;22.70;8.18;;;6.20;99.90;;;;;;5003316;28;20041;-85
2022/02/15 04:50:12;;;;;;;23.38;8.32;;;6.20;99.90;;;;;;4974236;28;20095;-87
2022/02/15 04:52:38;;;;;;;23.27;7.82;;;6.20;99.90;;;;;;4986207;28;20037;-85
2022/02/15 04:55:04;;;;;;;20.70;7.38;;;6.10;99.90;;;;;;4979494;28;22009;-86
2022/02/15 04:57:30;;;;;;;25.85;7.70;;;6.20;99.90;;;;;;4954596;28;20125;-87
2022/02/15 04:59:56;;;;;;;23.25;9.15;;;6.20;99.90;;;;;;4954547;28;20112;-86
2022/02/15 05:02:21;;;;;;;26.65;8.75;;;6.10;99.90;;;;;;4997823;28;20654;-86
2022/02/15 05:04:50;;;;;;;22.00;8.70;;;6.10;99.90;;;;;;4967356;28;20049;-86
2022/02/15 05:07:17;;;;;;;31.50;9.73;;;6.10;99.90;;;;;;4973456;28;20461;-85
2022/02/15 05:09:43;;;;;;;22.50;9.88;;;6.10;99.90;;;;;;4970660;28;20500;-84
2022/02/15 05:12:10;;;;;;;25.58;10.23;;;6.10;99.90;;;;;;4953996;28;20043;-86
2022/02/15 05:14:36;;;;;;;28.25;11.50;;;6.10;99.90;;;;;;4971580;28;20459;-87
2022/02/15 05:17:02;;;;;;;27.45;10.45;;;6.10;99.90;;;;;;5002784;28;20112;-85
2022/02/15 05:19:28;;;;;;;28.02;11.18;;;6.10;99.90;;;;;;4960883;28;20481;-86
2022/02/15 05:21:54;;;;;;;24.45;10.73;;;6.10;99.90;;;;;;4987072;28;20124;-84
2022/02/15 05:24:20;;;;;;;30.52;11.30;;;6.10;99.90;;;;;;4981484;28;20137;-85
2022/02/15 05:26:45;;;;;;;32.55;12.00;;;6.00;99.90;;;;;;4985995;28;20053;-84
2022/02/15 05:29:11;;;;;;;28.77;11.73;;;6.00;99.90;;;;;;4973826;28;20121;-84
2022/02/15 05:31:37;;;;;;;30.42;11.68;;;6.00;99.90;;;;;;4969679;28;20057;-85
2022/02/15 05:34:03;;;;;;;27.08;10.95;;;6.00;99.90;;;;;;4992673;28;20409;-84
2022/02/15 05:36:30;;;;;;;29.83;11.68;;;6.00;99.90;;;;;;4979979;28;20061;-84
2022/02/15 05:38:57;;;;;;;24.73;10.32;;;6.00;99.90;;;;;;4961073;28;20048;-84
2022/02/15 05:41:23;;;;;;;33.33;11.60;;;5.90;99.90;;;;;;5006546;28;20041;-85
2022/02/15 05:43:48;;;;;;;33.35;12.88;;;6.00;99.90;;;;;;4978416;28;20037;-85
2022/02/15 05:46:14;;;;;;;30.92;12.45;;;5.90;99.90;;;;;;4988706;28;20104;-85
2022/02/15 05:48:40;;;;;;;32.30;12.82;;;6.00;99.90;;;;;;4970654;28;20100;-87
2022/02/15 05:51:06;;;;;;;30.25;12.30;;;6.00;99.90;;;;;;4971321;28;20459;-86
2022/02/15 05:53:32;;;;;;;30.45;11.95;;;6.00;99.90;;;;;;4974052;28;20898;-85
2022/02/15 05:55:59;;;;;;;35.17;12.48;;;6.00;99.90;;;;;;4953966;28;20497;-87
2022/02/15 05:58:26;;;;;;;31.05;13.00;;;6.00;99.90;;;;;;5003149;28;20480;-86
2022/02/15 06:00:52;;;;;;;26.92;11.32;;;5.90;99.90;;;;;;5000125;28;20037;-86
2022/02/15 06:06:02;;;;;;;32.47;12.98;;;5.90;99.90;;;;;;5002825;28;20092;-85
2022/02/15 06:08:29;;;;;;;35.00;13.52;;;5.80;99.90;;;;;;4993080;28;20038;-85
2022/02/15 06:10:54;;;;;;;29.30;13.52;;;5.80;99.90;;;;;;5004906;28;20037;-85
2022/02/15 06:13:20;;;;;;;38.15;14.77;;;5.80;99.90;;;;;;4958898;28;20401;-86
2022/02/15 06:15:46;;;;;;;37.45;14.23;;;5.80;99.90;;;;;;5003865;28;20492;-86
2022/02/15 06:18:12;;;;;;;34.75;14.88;;;5.80;99.90;;;;;;4988360;28;20044;-85
2022/02/15 06:20:39;;;;;;;36.17;13.65;;;5.80;99.90;;;;;;4977931;28;20076;-85
2022/02/15 06:23:05;;;;;;;29.15;14.13;;;5.90;99.90;;;;;;4988635;28;20053;-85
2022/02/15 06:25:31;;;;;;;30.63;13.77;;;5.90;99.90;;;;;;4965386;28;20480;-85
2022/02/15 06:27:57;;;;;;;36.63;14.27;;;5.90;99.90;;;;;;4988204;28;20049;-86
2022/02/15 06:30:23;;;;;;;27.70;13.38;;;5.90;99.90;;;;;;4969380;28;20037;-87
2022/02/15 06:32:49;;;;;;;37.55;15.10;;;6.00;99.90;;;;;;5005420;28;20118;-85
2022/02/15 06:35:15;;;;;;;38.58;14.55;;;6.00;99.90;;;;;;4983646;28;20405;-85
2022/02/15 06:37:45;;;;;;;32.83;15.63;;;6.00;99.90;;;;;;4973455;28;20048;-86
2022/02/15 06:40:12;;;;;;;33.53;15.75;;;6.00;99.90;;;;;;4986014;28;20599;-85
2022/02/15 06:42:39;;;;;;;31.17;15.30;;;6.00;99.90;;;;;;4957349;28;20048;-85
2022/02/15 06:45:06;;;;;;;41.58;16.45;;;6.10;99.90;;;;;;4991679;28;20060;-85
2022/02/15 06:47:32;;;;;;;31.98;15.65;;;6.00;99.90;;;;;;4974404;28;20041;-86
2022/02/15 06:49:59;;;;;;;36.90;16.10;;;6.00;99.90;;;;;;4988751;28;20593;-86
2022/02/15 06:52:26;;;;;;;30.88;15.60;;;6.00;99.90;;;;;;5003578;28;20040;-86
2022/02/15 06:54:52;;;;;;;38.83;15.77;;;6.10;99.90;;;;;;4992718;28;20130;-87
2022/02/15 06:57:18;;;;;;;34.72;15.63;;;6.00;99.90;;;;;;4976131;28;20042;-86
2022/02/15 06:59:44;;;;;;;42.30;15.90;;;6.00;99.90;;;;;;4989592;28;20124;-88
2022/02/15 07:02:10;;;;;;;40.50;16.30;;;6.00;99.90;;;;;;4981084;28;20060;-87
2022/02/15 07:04:36;;;;;;;47.40;17.85;;;6.00;99.90;;;;;;4970344;28;20146;-85
2022/02/15 07:07:02;;;;;;;39.05;17.08;;;6.00;99.90;;;;;;4970445;28;20072;-87
2022/02/15 07:09:27;;;;;;;36.38;17.45;;;6.00;99.90;;;;;;4974485;28;20037;-87
2022/02/15 07:11:53;;;;;;;38.53;17.38;;;6.00;99.90;;;;;;4974014;28;20354;-86
2022/02/15 07:14:19;;;;;;;41.03;18.15;;;6.00;99.90;;;;;;4975775;28;20132;-86
2022/02/15 07:16:45;;;;;;;47.28;19.23;;;6.00;99.90;;;;;;4960015;28;20060;-87
2022/02/15 07:19:11;;;;;;;40.45;19.08;;;6.00;99.90;;;;;;4986468;28;20539;-86
2022/02/15 07:21:37;;;;;;;40.28;20.02;;;6.00;99.90;;;;;;4976256;28;20041;-86
2022/02/15 07:24:04;;;;;;;48.05;21.08;;;6.00;99.90;;;;;;4978233;28;20095;-88
2022/02/15 07:26:30;;;;;;;46.75;20.10;;;6.00;99.90;;;;;;4976283;28;20359;-86
2022/02/15 07:28:56;;;;;;;38.33;20.38;;;6.00;99.90;;;;;;5001597;28;20045;-87
2022/02/15 07:31:23;;;;;;;43.83;21.02;;;6.10;99.90;;;;;;4998868;28;20933;-86
2022/02/15 07:33:49;;;;;;;41.75;20.27;;;6.10;99.90;;;;;;4987413;28;20048;-87
2022/02/15 07:36:15;;;;;;;47.20;21.10;;;6.10;99.90;;;;;;4973259;28;20555;-86
2022/02/15 07:38:41;;;;;;;48.60;21.17;;;6.10;99.90;;;;;;4975809;28;20128;-87
2022/02/15 07:41:07;;;;;;;41.65;20.13;;;6.10;99.90;;;;;;4985586;28;20038;-85
2022/02/15 07:43:32;;;;;;;44.83;20.67;;;6.10;99.90;;;;;;5003113;28;20044;-86
2022/02/15 07:45:58;;;;;;;42.88;23.27;;;6.20;99.90;;;;;;4969950;28;20049;-86
2022/02/15 07:48:24;;;;;;;51.40;22.98;;;6.20;99.90;;;;;;4988476;28;20087;-85
2022/02/15 07:50:50;;;;;;;45.67;23.75;;;6.20;99.90;;;;;;4990982;28;20045;-84
2022/02/15 07:53:16;;;;;;;44.55;22.38;;;6.20;99.90;;;;;;4997491;28;20042;-86
2022/02/15 07:55:42;;;;;;;52.42;23.13;;;6.30;99.90;;;;;;4990512;28;20499;-84
2022/02/15 07:58:08;;;;;;;40.85;20.90;;;6.30;99.90;;;;;;4976241;28;20033;-84
2022/02/15 08:00:34;;;;;;;51.15;24.10;;;6.30;99.90;;;;;;4990322;28;20041;-86
2022/02/15 08:03:00;;;;;;;47.13;24.13;;;6.30;99.90;;;;;;4986472;28;20484;-84
2022/02/15 08:05:26;;;;;;;49.63;24.02;;;6.30;99.90;;;;;;4988586;28;20044;-86
2022/02/15 08:07:54;;;;;;;53.42;23.83;;;6.30;99.90;;;;;;5007609;28;20081;-85
2022/02/15 08:10:21;;;;;;;50.20;23.33;;;6.40;99.90;;;;;;5010196;28;20128;-86
2022/02/15 08:12:55;;;;;;;51.30;23.88;;;6.40;99.90;;;;;;4981436;28;20038;-86
2022/02/15 08:15:23;;;;;;;46.13;23.02;;;6.40;99.90;;;;;;4992734;28;20041;-85
2022/02/15 08:17:49;;;;;;;44.53;22.88;;;6.50;99.90;;;;;;4994343;28;20033;-86
2022/02/15 08:20:15;;;;;;;44.03;22.27;;;6.50;99.90;;;;;;4981831;28;20037;-86
2022/02/15 08:22:41;;;;;;;53.92;24.05;;;6.50;99.90;;;;;;5006191;28;20464;-85
2022/02/15 08:25:07;;;;;;;49.42;24.02;;;6.50;99.90;;;;;;4976208;28;20037;-83
2022/02/15 08:27:33;;;;;;;46.05;25.35;;;6.50;99.90;;;;;;4985876;28;20065;-84
2022/02/15 08:29:59;;;;;;;40.88;21.38;;;6.50;99.90;;;;;;4971556;28;20050;-84
2022/02/15 08:32:25;;;;;;;47.95;24.08;;;6.50;99.90;;;;;;5001978;28;20049;-85
2022/02/15 08:34:51;;;;;;;50.33;25.65;;;6.60;99.90;;;;;;4973534;28;20416;-84
2022/02/15 08:37:17;;;;;;;47.35;24.77;;;6.60;99.90;;;;;;4982997;28;20409;-85
2022/02/15 08:39:43;;;;;;;55.38;24.98;;;6.60;99.90;;;;;;4965887;28;20525;-84
2022/02/15 08:42:09;;;;;;;42.67;24.05;;;6.60;99.90;;;;;;4952883;28;20125;-84
2022/02/15 08:44:36;;;;;;;56.53;25.73;;;6.60;99.90;;;;;;4989896;28;20042;-84
2022/02/15 08:47:05;;;;;;;45.25;24.67;;;6.60;99.90;;;;;;4967175;28;20092;-84
2022/02/15 08:49:35;;;;;;;46.20;24.63;;;6.70;99.90;;;;;;4989588;28;20474;-88
2022/02/15 08:52:01;;;;;;;47.22;24.17;;;6.70;99.90;;;;;;4985953;28;20037;-85
2022/02/15 08:54:27;;;;;;;41.78;23.63;;;6.70;99.90;;;;;;4984271;28;20176;-86
2022/02/15 08:56:53;;;;;;;45.30;22.88;;;6.80;99.90;;;;;;4977630;28;20127;-85
2022/02/15 08:59:18;;;;;;;43.30;22.52;;;6.80;99.90;;;;;;4973857;28;20077;-85
2022/02/15 09:01:44;;;;;;;45.58;22.17;;;6.90;99.90;;;;;;4954913;28;20034;-87
2022/02/15 09:04:10;;;;;;;42.88;21.83;;;6.90;99.90;;;;;;4967430;28;20086;-86
2022/02/15 09:06:38;;;;;;;40.22;22.63;;;7.00;99.90;;;;;;4970006;28;20057;-86
2022/02/15 09:09:04;;;;;;;36.28;20.55;;;7.00;99.90;;;;;;4975670;28;20492;-87
2022/02/15 09:11:30;;;;;;;41.80;21.27;;;7.10;99.90;;;;;;5002938;28;20045;-86
2022/02/15 09:13:56;;;;;;;43.38;20.20;;;7.10;99.90;;;;;;4974889;28;20044;-87
2022/02/15 09:16:21;;;;;;;35.45;19.40;;;7.10;99.90;;;;;;4972145;28;20041;-87
2022/02/15 09:18:47;;;;;;;33.55;18.48;;;7.20;99.90;;;;;;4972815;28;20452;-85
2022/02/15 09:21:15;;;;;;;38.85;18.70;;;7.20;99.90;;;;;;4981319;28;20455;-87
2022/02/15 09:23:41;;;;;;;37.85;18.63;;;7.30;99.90;;;;;;4970502;28;20037;-86
2022/02/15 09:26:09;;;;;;;29.15;16.60;;;7.30;99.90;;;;;;4979744;28;20048;-89
2022/02/15 09:28:36;;;;;;;31.98;15.98;;;7.30;99.90;;;;;;4953984;28;20033;-86
2022/02/15 09:31:01;;;;;;;32.95;15.85;;;7.40;99.90;;;;;;4991582;28;20496;-88
2022/02/15 09:33:27;;;;;;;28.88;13.82;;;7.50;99.90;;;;;;4971597;28;20091;-87
2022/02/15 09:35:54;;;;;;;36.58;14.15;;;7.50;99.90;;;;;;5003580;23;20068;-89
2022/02/15 09:38:20;;;;;;;24.85;13.88;;;7.50;99.90;;;;;;4958469;28;20045;-86
2022/02/15 09:40:48;;;;;;;27.63;12.80;;;7.50;99.90;;;;;;4957748;28;20045;-86
2022/02/15 09:43:15;;;;;;;26.90;13.23;;;7.60;99.90;;;;;;4965615;28;20033;-87
2022/02/15 09:45:45;;;;;;;28.15;13.20;;;7.60;99.90;;;;;;4990801;28;20033;-86
2022/02/15 09:48:13;;;;;;;22.15;12.57;;;7.60;99.90;;;;;;4991260;28;20045;-83
2022/02/15 09:50:45;;;;;;;24.33;13.13;;;7.70;99.90;;;;;;4994210;28;20468;-86
2022/02/15 09:53:11;;;;;;;33.17;12.63;;;7.70;99.90;;;;;;4984311;28;20034;-85
2022/02/15 09:55:46;;;;;;;31.02;12.20;;;7.80;99.90;;;;;;4975541;28;20693;-86
2022/02/15 09:58:13;;;;;;;23.67;12.00;;;7.80;99.90;;;;;;4990489;28;20440;-87
2022/02/15 10:00:42;;;;;;;25.15;12.27;;;7.80;99.90;;;;;;4989107;28;20553;-85
2022/02/15 10:03:09;;;;;;;23.02;11.95;;;7.90;99.90;;;;;;4986058;28;20037;-87
2022/02/15 10:05:37;;;;;;;20.80;12.38;;;7.90;99.90;;;;;;4972427;28;20589;-85
2022/02/15 10:08:03;;;;;;;19.90;12.23;;;7.90;99.90;;;;;;4959384;28;20120;-86
2022/02/15 10:10:31;;;;;;;27.75;12.70;;;7.90;99.90;;;;;;4953564;28;20124;-87
2022/02/15 10:13:03;;;;;;;23.77;11.60;;;7.90;99.90;;;;;;4971468;28;20052;-84
2022/02/15 10:15:34;;;;;;;24.15;12.52;;;8.00;99.90;;;;;;4985124;28;20037;-84
2022/02/15 10:18:07;;;;;;;22.75;9.85;;;8.10;99.90;;;;;;4990789;28;22031;-87
2022/02/15 10:20:34;;;;;;;15.55;9.02;;;8.10;99.90;;;;;;4986992;28;20052;-87
2022/02/15 10:23:21;;;;;;;25.17;10.27;;;8.20;99.90;;;;;;4984808;28;20072;-85
2022/02/15 10:25:49;;;;;;;23.65;9.13;;;8.30;99.90;;;;;;5007536;28;20191;-86
2022/02/15 10:28:20;;;;;;;23.27;8.02;;;8.20;99.90;;;;;;4991673;28;20080;-87
2022/02/15 10:30:51;;;;;;;20.60;8.32;;;8.20;99.90;;;;;;4986852;28;20187;-86
2022/02/15 10:33:19;;;;;;;20.70;7.93;;;8.20;99.90;;;;;;4972675;28;20492;-88
2022/02/15 10:36:00;;;;;;;15.80;8.13;;;8.30;99.90;;;;;;4973190;28;20049;-85
2022/02/15 10:38:30;;;;;;;18.48;6.97;;;8.30;99.90;;;;;;4986249;28;20130;-87
2022/02/15 10:41:16;;;;;;;22.55;7.28;;;8.40;99.90;;;;;;4986122;28;20037;-84
2022/02/15 10:43:48;;;;;;;13.50;6.22;;;8.40;99.90;;;;;;4968974;28;20103;-85
2022/02/15 10:46:19;;;;;;;16.98;6.47;;;8.40;99.90;;;;;;4987376;28;20391;-86
2022/02/15 10:48:46;;;;;;;17.48;6.57;;;8.40;99.90;;;;;;4987891;28;20041;-88
2022/02/15 10:51:14;;;;;;;16.20;6.88;;;8.40;99.90;;;;;;4988629;28;20052;-84
2022/02/15 10:53:40;;;;;;;14.88;6.00;;;8.40;99.90;;;;;;4971325;28;20323;-88
2022/02/15 10:56:06;;;;;;;12.02;6.13;;;8.50;99.90;;;;;;4986369;28;20088;-85
2022/02/15 10:58:33;;;;;;;18.80;6.57;;;8.60;99.90;;;;;;4990905;28;20536;-85
2022/02/15 11:01:08;;;;;;;15.02;6.50;;;8.60;99.90;;;;;;4984544;28;20781;-86
2022/02/15 11:03:39;;;;;;;13.10;5.25;;;8.60;99.90;;;;;;4982035;28;20120;-86
2022/02/15 11:06:07;;;;;;;16.23;4.90;;;8.60;99.90;;;;;;4983441;28;20048;-87
2022/02/15 11:08:39;;;;;;;13.73;4.72;;;8.60;99.90;;;;;;4973952;28;20095;-86
2022/02/15 11:11:14;;;;;;;11.73;4.75;;;8.60;99.90;;;;;;4974266;28;20042;-87
2022/02/15 11:13:41;;;;;;;14.82;5.22;;;8.50;99.90;;;;;;5001237;28;20462;-88
2022/02/15 11:16:15;;;;;;;16.63;4.90;;;8.50;99.90;;;;;;4985870;28;20037;-86
2022/02/15 11:18:42;;;;;;;13.60;4.47;;;8.50;99.90;;;;;;4984739;28;20037;-87
2022/02/15 11:21:26;;;;;;;9.23;3.95;;;8.50;99.90;;;;;;4991561;28;20079;-88
2022/02/15 11:23:58;;;;;;;13.48;4.47;;;8.50;99.90;;;;;;4998504;28;20491;-86
2022/02/15 11:26:33;;;;;;;14.15;4.63;;;8.50;99.90;;;;;;4964383;28;20251;-88
2022/02/15 11:28:59;;;;;;;12.45;4.25;;;8.40;99.90;;;;;;4981885;28;20059;-89
2022/02/15 11:31:34;;;;;;;15.82;4.60;;;8.30;99.90;;;;;;4966697;28;20053;-89
2022/02/15 11:34:05;;;;;;;15.10;4.13;;;8.20;99.90;;;;;;4979380;28;20100;-88
2022/02/15 11:36:31;;;;;;;14.85;3.38;;;8.10;99.90;;;;;;4969569;28;20038;-86
2022/02/15 11:39:06;;;;;;;14.43;3.85;;;8.10;99.90;;;;;;4968705;28;20261;-88
2022/02/15 11:41:43;;;;;;;16.77;3.35;;;8.10;99.90;;;;;;4984803;28;20536;-86
2022/02/15 11:44:08;;;;;;;8.93;3.13;;;8.10;99.90;;;;;;4986598;28;20072;-85
2022/02/15 11:46:46;;;;;;;11.70;3.03;;;8.10;99.90;;;;;;4958134;28;20037;-84
2022/02/15 11:49:18;;;;;;;9.88;3.05;;;8.10;99.90;;;;;;4984142;28;20059;-86
2022/02/15 11:51:46;;;;;;;11.38;3.08;;;8.20;99.90;;;;;;5000012;28;20128;-86
2022/02/15 11:54:18;;;;;;;8.50;3.17;;;8.30;99.90;;;;;;4981428;28;20561;-87
2022/02/15 11:56:52;;;;;;;9.73;3.33;;;8.40;99.90;;;;;;4982158;28;20084;-89
2022/02/15 11:59:21;;;;;;;9.18;3.00;;;8.50;99.90;;;;;;4971068;28;20041;-85
2022/02/15 12:02:00;;;;;;;10.05;3.00;;;8.50;99.90;;;;;;4983402;28;20495;-86
2022/02/15 12:04:27;;;;;;;11.48;2.90;;;8.60;99.90;;;;;;4983419;28;20034;-85
2022/02/15 12:06:54;;;;;;;10.63;3.00;;;8.60;99.90;;;;;;4968485;28;20429;-88
2022/02/15 12:09:34;;;;;;;10.48;2.97;;;8.70;99.90;;;;;;4967239;28;20168;-85
2022/02/15 12:12:01;;;;;;;9.18;2.50;;;8.80;99.90;;;;;;4951494;28;20087;-86
2022/02/15 12:14:27;;;;;;;10.20;2.95;;;8.80;99.90;;;;;;4971443;28;20039;-86
2022/02/15 12:17:01;;;;;;;7.82;2.63;;;8.80;99.90;;;;;;4982593;28;20041;-87
2022/02/15 12:19:32;;;;;;;10.48;2.28;;;8.90;99.90;;;;;;4964717;28;20042;-88
2022/02/15 12:22:01;;;;;;;5.85;2.05;;;9.00;99.90;;;;;;4977968;28;20192;-88
2022/02/15 12:24:28;;;;;;;9.38;2.55;;;9.20;99.90;;;;;;4987103;28;20546;-87
2022/02/15 12:26:56;;;;;;;7.70;2.42;;;9.30;99.90;;;;;;5002497;28;20041;-87
2022/02/15 12:29:22;;;;;;;12.10;2.83;;;9.40;99.90;;;;;;4955785;28;20037;-88
2022/02/15 12:31:56;;;;;;;8.93;2.47;;;9.50;99.90;;;;;;4964598;28;20129;-87
2022/02/15 12:34:21;;;;;;;9.45;2.60;;;9.60;99.90;;;;;;4984318;28;20042;-85
2022/02/15 12:36:48;;;;;;;7.93;2.35;;;9.60;99.90;;;;;;4985754;28;20217;-87
2022/02/15 12:39:14;;;;;;;5.60;2.10;;;9.60;99.90;;;;;;4954973;28;20033;-85
2022/02/15 12:41:43;;;;;;;4.88;1.55;;;9.60;99.90;;;;;;4982376;28;20051;-88
2022/02/15 12:44:09;;;;;;;8.80;1.80;;;9.80;98.30;;;;;;4972823;28;20041;-86
2022/02/15 12:46:36;;;;;;;9.88;1.70;;;9.90;94.80;;;;;;4965522;28;20042;-90
2022/02/15 12:49:07;;;;;;;4.15;1.67;;;10.00;95.70;;;;;;4981051;28;20049;-86